TimeCST,TemperatureF,Dew PointF,Humidity,Sea Level PressureIn,VisibilityMPH,Wind Direction,Wind SpeedMPH,Gust SpeedMPH,PrecipitationIn,Events,Conditions,WindDirDegrees,DateUTC
12:55 AM,51.1,43.0,74,30.26,10.0,North,6.9,-,N/A,,Clear,10,2012-11-19 06:55:00
1:55 AM,50.2,43.2,77,30.26,10.0,North,5.8,-,N/A,,Clear,10,2012-11-19 07:55:00
2:55 AM,48.7,43.5,82,30.26,10.0,North,6.9,-,N/A,,Clear,10,2012-11-19 08:55:00
3:55 AM,46.6,42.8,87,30.26,10.0,North,4.6,-,N/A,,Clear,10,2012-11-19 09:55:00
4:55 AM,46.4,42.6,87,30.26,10.0,Calm,Calm,-,N/A,,Clear,0,2012-11-19 10:55:00
5:55 AM,45.0,42.3,90,30.26,10.0,Calm,Calm,-,N/A,,Partly Cloudy,0,2012-11-19 11:55:00
6:55 AM,44.6,42.4,92,30.27,10.0,Calm,Calm,-,N/A,,Partly Cloudy,0,2012-11-19 12:55:00
7:55 AM,52.7,45.1,75,30.28,10.0,NE,4.6,-,N/A,,Partly Cloudy,50,2012-11-19 13:55:00
8:55 AM,59.2,46.0,62,30.29,10.0,NE,4.6,-,N/A,,Scattered Clouds,50,2012-11-19 14:55:00
9:55 AM,62.1,48.0,60,30.30,10.0,NE,5.8,-,N/A,,Scattered Clouds,40,2012-11-19 15:55:00
10:55 AM,67.8,49.1,51,30.26,10.0,NE,4.6,-,N/A,,Scattered Clouds,50,2012-11-19 16:55:00
11:55 AM,71.1,48.7,45,30.25,10.0,North,8.1,-,N/A,,Scattered Clouds,350,2012-11-19 17:55:00
12:55 PM,72.1,46.8,40,30.22,10.0,NNW,8.1,-,N/A,,Scattered Clouds,330,2012-11-19 18:55:00
1:55 PM,72.9,46.2,39,30.20,10.0,NW,8.1,-,N/A,,Partly Cloudy,310,2012-11-19 19:55:00
2:55 PM,72.0,47.1,41,30.19,10.0,NNW,11.5,-,N/A,,Partly Cloudy,340,2012-11-19 20:55:00
3:55 PM,70.0,46.2,43,30.19,10.0,North,12.7,-,N/A,,Partly Cloudy,350,2012-11-19 21:55:00
4:55 PM,63.9,46.4,53,30.19,10.0,North,6.9,-,N/A,,Partly Cloudy,360,2012-11-19 22:55:00
5:55 PM,58.6,46.2,63,30.19,10.0,North,4.6,-,N/A,,Partly Cloudy,360,2012-11-19 23:55:00
6:55 PM,56.8,46.2,68,30.19,10.0,North,4.6,-,N/A,,Clear,360,2012-11-20 00:55:00
7:55 PM,52.9,45.5,76,30.19,10.0,North,5.8,-,N/A,,Clear,350,2012-11-20 01:55:00
8:55 PM,52.9,46.0,78,30.20,10.0,North,6.9,-,N/A,,Clear,350,2012-11-20 02:55:00
9:55 PM,50.7,45.5,82,30.19,10.0,North,5.8,-,N/A,,Clear,10,2012-11-20 03:55:00
10:55 PM,49.3,44.6,84,30.18,10.0,North,4.6,-,N/A,,Clear,350,2012-11-20 04:55:00
11:55 PM,50.0,45.3,84,30.17,10.0,North,6.9,-,N/A,,Partly Cloudy,350,2012-11-20 05:55:00